createdAt,value
2023-03-26T00:02:14.578Z,1102.00
2023-03-26T00:06:14.511Z,1020.00
2023-03-26T00:10:14.485Z,995.00
2023-03-26T00:14:14.429Z,954.00
2023-03-26T00:18:14.413Z,1039.00
2023-03-26T00:22:14.390Z,1074.00
2023-03-26T00:26:14.366Z,1172.00
2023-03-26T00:30:14.305Z,1129.00
2023-03-26T00:34:14.284Z,1116.00
2023-03-26T00:38:14.268Z,1088.00
2023-03-26T00:42:14.308Z,1004.00
2023-03-26T00:46:14.399Z,1148.00
2023-03-26T00:50:14.404Z,1113.00
2023-03-26T00:54:14.369Z,1120.00
2023-03-26T00:58:14.355Z,1073.00
2023-03-26T01:02:14.312Z,1113.00
2023-03-26T01:06:14.274Z,1075.00
2023-03-26T01:10:14.213Z,1176.00
2023-03-26T01:14:14.185Z,1061.00
2023-03-26T01:18:14.166Z,1049.00
2023-03-26T01:22:14.114Z,1038.00
2023-03-26T01:26:14.057Z,1126.00
2023-03-26T01:30:14.011Z,1108.00
2023-03-26T01:34:14.008Z,1106.00
2023-03-26T01:38:13.960Z,1108.00
2023-03-26T01:42:13.919Z,1154.00
2023-03-26T01:46:13.926Z,1116.00
2023-03-26T01:50:13.829Z,1189.00
2023-03-26T01:54:13.779Z,1125.00
2023-03-26T01:58:13.736Z,1155.00
2023-03-26T02:02:13.800Z,1142.00
2023-03-26T02:06:13.836Z,1121.00
2023-03-26T02:10:13.870Z,1095.00
2023-03-26T02:14:13.933Z,1104.00
2023-03-26T02:18:13.893Z,1131.00
2023-03-26T02:22:13.869Z,1070.00
2023-03-26T02:26:13.811Z,1108.00
2023-03-26T02:30:13.761Z,1161.00
2023-03-26T02:34:13.757Z,1126.00
2023-03-26T02:38:13.688Z,1159.00
2023-03-26T02:42:13.649Z,1073.00
2023-03-26T02:46:13.694Z,1147.00
2023-03-26T02:50:13.578Z,1112.00
2023-03-26T02:54:13.543Z,1073.00
2023-03-26T02:58:13.501Z,1119.00
2023-03-26T03:02:13.538Z,1031.00
2023-03-26T03:06:13.447Z,1155.00
2023-03-26T03:10:13.370Z,1078.00
2023-03-26T03:14:13.349Z,1119.00
2023-03-26T03:18:13.318Z,1014.00
2023-03-26T03:22:13.273Z,1110.00
2023-03-26T03:26:13.232Z,1149.00
2023-03-26T03:30:13.250Z,1153.00
2023-03-26T03:34:13.266Z,1102.00
2023-03-26T03:38:13.317Z,1141.00
2023-03-26T03:42:13.269Z,1129.00
2023-03-26T03:46:13.281Z,1129.00
2023-03-26T03:50:13.227Z,1094.00
2023-03-26T03:54:13.181Z,1094.00
2023-03-26T03:58:13.119Z,1175.00
2023-03-26T04:02:13.108Z,1090.00
2023-03-26T04:06:13.059Z,1114.00
2023-03-26T04:10:13.018Z,1147.00
2023-03-26T04:14:12.990Z,1142.00
2023-03-26T04:18:12.921Z,1139.00
2023-03-26T04:22:12.888Z,1183.00
2023-03-26T04:26:12.870Z,1162.00
2023-03-26T04:30:12.826Z,1137.00
2023-03-26T04:34:12.791Z,1211.00
2023-03-26T04:38:12.810Z,1219.00
2023-03-26T04:42:12.814Z,1116.00
2023-03-26T04:46:12.872Z,1187.00
2023-03-26T04:50:12.917Z,1124.00
2023-03-26T04:54:13.008Z,1168.00
2023-03-26T04:58:12.953Z,1128.00
2023-03-26T05:02:13.057Z,1167.00
2023-03-26T05:06:13.063Z,1138.00
2023-03-26T05:10:13.125Z,1127.00
2023-03-26T05:14:13.147Z,1148.00
2023-03-26T05:18:13.181Z,1131.00
2023-03-26T05:22:13.241Z,1124.00
2023-03-26T05:26:13.335Z,1117.00
2023-03-26T05:30:13.389Z,1097.00
2023-03-26T05:34:13.445Z,1102.00
2023-03-26T05:38:13.479Z,1092.00
2023-03-26T05:42:13.484Z,1081.00
2023-03-26T05:46:13.545Z,1094.00
2023-03-26T05:50:13.685Z,1058.00
2023-03-26T05:54:13.685Z,1056.00
2023-03-26T05:58:13.686Z,1072.00
2023-03-26T06:02:13.741Z,1057.00
2023-03-26T06:06:13.709Z,1101.00
2023-03-26T06:10:18.140Z,1025.00
2023-03-26T06:14:14.616Z,1053.00
2023-03-26T06:18:13.706Z,1047.00
2023-03-26T06:22:13.599Z,1026.00
2023-03-26T06:26:13.660Z,1082.00
2023-03-26T06:30:13.661Z,1048.00
2023-03-26T06:34:13.721Z,995.00
2023-03-26T06:38:13.681Z,1048.00
2023-03-26T06:42:13.709Z,1082.00
2023-03-26T06:46:13.757Z,1080.00
2023-03-26T06:50:13.737Z,1097.00
2023-03-26T06:54:13.683Z,1063.00
2023-03-26T06:58:13.654Z,1108.00
2023-03-26T07:02:13.617Z,1133.00
2023-03-26T07:06:13.589Z,1138.00
2023-03-26T07:10:13.578Z,1236.00
2023-03-26T07:14:13.499Z,1208.00
2023-03-26T07:18:13.464Z,1139.00
2023-03-26T07:22:13.423Z,1209.00
2023-03-26T07:26:13.394Z,1117.00
2023-03-26T07:30:13.357Z,1113.00
2023-03-26T07:34:13.314Z,1094.00
2023-03-26T07:38:13.274Z,1111.00
2023-03-26T07:42:13.455Z,1191.00
2023-03-26T07:46:13.627Z,1208.00
2023-03-26T07:50:13.757Z,1147.00
2023-03-26T07:54:13.916Z,1163.00
2023-03-26T07:58:14.018Z,1096.00
2023-03-26T08:02:14.144Z,1086.00
2023-03-26T08:06:14.293Z,1087.00
2023-03-26T08:10:14.397Z,1106.00
2023-03-26T08:14:14.510Z,1018.00
2023-03-26T08:18:14.616Z,986.00
2023-03-26T08:22:14.708Z,1047.00
2023-03-26T08:26:14.800Z,1057.00
2023-03-26T08:30:14.882Z,979.00
2023-03-26T08:34:14.883Z,976.00
2023-03-26T08:38:14.891Z,972.00
2023-03-26T08:42:14.884Z,941.00
2023-03-26T08:46:14.961Z,897.00
2023-03-26T08:50:14.937Z,901.00
2023-03-26T08:54:14.922Z,832.00
2023-03-26T08:58:14.895Z,823.00
2023-03-26T09:02:14.923Z,847.00
2023-03-26T09:06:14.949Z,827.00
2023-03-26T09:10:15.062Z,864.00
2023-03-26T09:14:15.053Z,862.00
2023-03-26T09:18:15.090Z,822.00
2023-03-26T09:22:15.165Z,866.00
2023-03-26T09:26:15.218Z,836.00
2023-03-26T09:30:15.298Z,813.00
2023-03-26T09:34:15.372Z,761.00
2023-03-26T09:38:15.448Z,806.00
2023-03-26T09:42:15.523Z,825.00
2023-03-26T09:46:15.605Z,709.00
2023-03-26T09:50:15.647Z,701.00
2023-03-26T09:54:15.644Z,719.00
2023-03-26T09:58:15.661Z,727.00
2023-03-26T10:02:15.698Z,767.00
2023-03-26T10:06:15.737Z,738.00
2023-03-26T10:10:15.777Z,729.00
2023-03-26T10:14:15.867Z,769.00
2023-03-26T10:18:27.090Z,739.00
2023-03-26T10:22:16.826Z,762.00
2023-03-26T10:26:15.816Z,762.00
2023-03-26T10:30:15.808Z,663.00
2023-03-26T10:34:19.408Z,754.00
2023-03-26T10:38:16.679Z,779.00
2023-03-26T10:42:15.674Z,721.00
2023-03-26T10:46:15.674Z,745.00
2023-03-26T10:50:22.671Z,805.00
2023-03-26T10:54:16.533Z,808.00
2023-03-26T10:58:15.477Z,822.00
2023-03-26T11:02:15.442Z,781.00
2023-03-26T11:06:15.402Z,739.00
2023-03-26T11:10:15.455Z,770.00
2023-03-26T11:14:24.433Z,705.00
2023-03-26T11:18:16.535Z,696.00
2023-03-26T11:22:15.443Z,744.00
2023-03-26T11:26:15.419Z,659.00
2023-03-26T11:30:15.360Z,739.00
2023-03-26T11:34:15.339Z,708.00
2023-03-26T11:38:15.406Z,735.00
2023-03-26T11:42:15.460Z,758.00
2023-03-26T11:46:15.534Z,722.00
2023-03-26T11:50:15.562Z,719.00
2023-03-26T11:54:15.633Z,703.00
2023-03-26T11:58:15.680Z,679.00
2023-03-26T12:02:15.795Z,694.00
2023-03-26T12:06:15.825Z,772.00
2023-03-26T12:10:18.447Z,757.00
2023-03-26T12:14:15.892Z,652.00
2023-03-26T12:18:15.932Z,614.00
2023-03-26T12:22:15.792Z,646.00
2023-03-26T12:26:15.750Z,615.00
2023-03-26T12:30:15.709Z,601.00
2023-03-26T12:34:15.675Z,643.00
2023-03-26T12:38:15.664Z,648.00
2023-03-26T12:43:40.420Z,635.00
2023-03-26T12:47:55.116Z,635.00
2023-03-26T12:50:16.518Z,670.00
2023-03-26T12:54:15.456Z,666.00
2023-03-26T12:58:15.480Z,760.00
2023-03-26T13:02:15.411Z,702.00
2023-03-26T13:06:15.359Z,672.00
2023-03-26T13:10:15.329Z,663.00
2023-03-26T13:14:15.301Z,651.00
2023-03-26T13:18:15.414Z,632.00
2023-03-26T13:22:15.592Z,652.00
2023-03-26T13:26:15.780Z,616.00
2023-03-26T13:30:15.992Z,598.00
2023-03-26T13:34:16.209Z,611.00
2023-03-26T13:38:16.408Z,640.00
2023-03-26T13:42:16.596Z,624.00
2023-03-26T13:46:16.842Z,621.00
2023-03-26T13:50:17.039Z,584.00
2023-03-26T13:54:17.241Z,563.00
2023-03-26T13:58:17.442Z,577.00
2023-03-26T14:02:17.642Z,554.00
2023-03-26T14:06:17.852Z,560.00
2023-03-26T14:10:18.072Z,579.00
2023-03-26T14:14:18.280Z,556.00
2023-03-26T14:18:18.572Z,588.00
2023-03-26T14:22:18.736Z,599.00
2023-03-26T14:26:18.948Z,529.00
2023-03-26T14:30:18.922Z,564.00
2023-03-26T14:34:18.875Z,515.00
2023-03-26T14:38:18.839Z,540.00
2023-03-26T14:42:18.786Z,507.00
2023-03-26T14:46:18.822Z,509.00
2023-03-26T14:50:18.717Z,522.00
2023-03-26T14:54:18.673Z,529.00
2023-03-26T14:58:18.652Z,555.00
2023-03-26T15:02:18.709Z,559.00
2023-03-26T15:06:18.681Z,572.00
2023-03-26T15:10:18.659Z,549.00
2023-03-26T15:14:18.614Z,531.00
2023-03-26T15:18:18.575Z,530.00
2023-03-26T15:22:18.520Z,556.00
2023-03-26T15:26:18.504Z,558.00
2023-03-26T15:30:18.441Z,547.00
2023-03-26T15:34:18.440Z,557.00
2023-03-26T15:38:18.381Z,595.00
2023-03-26T15:42:18.345Z,574.00
2023-03-26T15:46:18.410Z,579.00
2023-03-26T15:50:18.567Z,617.00
2023-03-26T15:54:18.514Z,576.00
2023-03-26T15:58:18.490Z,623.00
2023-03-26T16:02:18.460Z,687.00
2023-03-26T16:06:18.420Z,648.00
2023-03-26T16:10:18.368Z,626.00
2023-03-26T16:14:18.360Z,603.00
2023-03-26T16:18:18.310Z,627.00
2023-03-26T16:22:18.259Z,599.00
2023-03-26T16:26:18.214Z,654.00
2023-03-26T16:30:20.653Z,653.00
2023-03-26T16:34:18.146Z,662.00
2023-03-26T16:38:18.109Z,731.00
2023-03-26T16:42:18.218Z,719.00
2023-03-26T16:46:18.115Z,688.00
2023-03-26T16:50:18.017Z,660.00
2023-03-26T16:54:17.979Z,654.00
2023-03-26T16:58:17.955Z,795.00
2023-03-26T17:02:17.893Z,766.00
2023-03-26T17:06:17.856Z,702.00
2023-03-26T17:10:17.827Z,703.00
2023-03-26T17:14:17.773Z,766.00
2023-03-26T17:18:17.849Z,795.00
2023-03-26T17:22:17.716Z,747.00
2023-03-26T17:26:17.707Z,747.00
2023-03-26T17:30:17.642Z,802.00
2023-03-26T17:34:17.630Z,887.00
2023-03-26T17:38:17.612Z,803.00
2023-03-26T17:42:17.547Z,889.00
2023-03-26T17:46:17.589Z,859.00
2023-03-26T17:50:17.471Z,885.00
2023-03-26T17:54:17.429Z,934.00
2023-03-26T17:58:17.415Z,929.00
2023-03-26T18:02:17.390Z,915.00
2023-03-26T18:06:17.348Z,935.00
2023-03-26T18:10:17.289Z,969.00
2023-03-26T18:14:17.244Z,987.00
2023-03-26T18:18:17.193Z,976.00
2023-03-26T18:22:17.185Z,939.00
2023-03-26T18:26:17.125Z,933.00
2023-03-26T18:30:17.097Z,910.00
2023-03-26T18:34:17.035Z,893.00
2023-03-26T18:38:17.060Z,849.00
2023-03-26T18:42:22.388Z,891.00
2023-03-26T18:46:18.010Z,772.00
2023-03-26T18:50:16.965Z,837.00
2023-03-26T18:54:16.961Z,779.00
2023-03-26T18:58:16.986Z,843.00
2023-03-26T19:02:17.026Z,797.00
2023-03-26T19:06:16.919Z,851.00
2023-03-26T19:10:16.881Z,848.00
2023-03-26T19:14:17.163Z,869.00
2023-03-26T19:18:16.799Z,784.00
2023-03-26T19:22:16.753Z,766.00
2023-03-26T19:26:16.730Z,725.00
2023-03-26T19:30:16.660Z,699.00
2023-03-26T19:34:16.676Z,746.00
2023-03-26T19:38:16.587Z,755.00
2023-03-26T19:42:16.542Z,845.00
2023-03-26T19:46:16.524Z,779.00
2023-03-26T19:50:16.500Z,819.00
2023-03-26T19:54:16.467Z,799.00
2023-03-26T19:58:16.420Z,770.00
2023-03-26T20:02:16.428Z,712.00
2023-03-26T20:06:16.354Z,736.00
2023-03-26T20:10:16.324Z,696.00
2023-03-26T20:14:16.354Z,668.00
2023-03-26T20:18:16.307Z,709.00
2023-03-26T20:22:16.321Z,674.00
2023-03-26T20:26:16.336Z,664.00
2023-03-26T20:30:19.218Z,731.00
2023-03-26T20:34:17.369Z,663.00
2023-03-26T20:38:17.072Z,664.00
2023-03-26T20:42:16.270Z,665.00
2023-03-26T20:46:16.245Z,652.00
2023-03-26T20:50:16.135Z,667.00
2023-03-26T20:54:16.110Z,693.00
2023-03-26T20:58:16.072Z,601.00
2023-03-26T21:02:16.058Z,597.00
2023-03-26T21:06:16.000Z,589.00
2023-03-26T21:10:15.965Z,610.00
2023-03-26T21:14:15.905Z,650.00
2023-03-26T21:18:15.884Z,633.00
2023-03-26T21:22:15.842Z,611.00
2023-03-26T21:26:15.797Z,629.00
2023-03-26T21:30:15.781Z,603.00
2023-03-26T21:34:15.726Z,653.00
2023-03-26T21:38:15.682Z,596.00
2023-03-26T21:42:15.640Z,636.00
2023-03-26T21:46:15.682Z,608.00
2023-03-26T21:50:15.592Z,644.00
2023-03-26T21:54:15.537Z,650.00
2023-03-26T21:58:15.491Z,610.00
2023-03-26T22:02:15.441Z,601.00
2023-03-26T22:06:15.414Z,632.00
2023-03-26T22:10:15.468Z,678.00
2023-03-26T22:14:15.482Z,596.00
2023-03-26T22:18:15.553Z,610.00
2023-03-26T22:22:15.635Z,569.00
2023-03-26T22:26:15.693Z,600.00
2023-03-26T22:30:15.740Z,598.00
2023-03-26T22:34:15.808Z,560.00
2023-03-26T22:38:15.838Z,571.00
2023-03-26T22:42:15.945Z,576.00
2023-03-26T22:46:16.174Z,575.00
2023-03-26T22:50:16.156Z,595.00
2023-03-26T22:54:16.166Z,598.00
2023-03-26T22:58:16.180Z,591.00
2023-03-26T23:02:16.152Z,601.00
2023-03-26T23:06:16.136Z,576.00
2023-03-26T23:10:16.083Z,571.00
2023-03-26T23:14:16.077Z,545.00
2023-03-26T23:18:16.008Z,607.00
2023-03-26T23:22:15.952Z,600.00
2023-03-26T23:26:15.928Z,593.00
2023-03-26T23:30:15.894Z,569.00
2023-03-26T23:34:15.890Z,560.00
2023-03-26T23:38:15.827Z,588.00
2023-03-26T23:42:15.776Z,602.00
2023-03-26T23:46:16.781Z,607.00
2023-03-26T23:50:15.713Z,608.00
2023-03-26T23:54:15.721Z,620.00
2023-03-26T23:58:15.688Z,631.00
